Nar'yan-Mar, Russia
Current Conditions -  °F | °C
As of 7:00 AM on Saturday 25 Oct 2014 (Local Time) from ULAA Reporting Station
Clear Clear  
Wind Chill: 16°   Ceiling: Unl
Heat Index: 16°   Visibility: 6mi
Dew Point: 10°   Wind: 2mph
Humidity: 79%   Direction: NA
Pressure: 30.5"   Gusts: NA
Location:  67.63°N, 53.03°E
Report Text: ULAA 250400Z VRB01MPS CAVOK M09/M12 Q1033 NOSIG RMK QFE773/1031 SC060
Loading
Personal Weather Stations






























Interactive Weather Map
Tropical Storm Tracking
New forecast layout! Learn more

10-Day Weather Forecast

Advertisements
Track Severe Weather on mobile